Helgafell — OZ2049 — position and weather

sailwx.info

Track history (hours):
 
Tides and Currents Weather Stations Pressure Air Temp Water Temp Dewpoint Dewpoint Depression Visibility Wind Speed Wind Dir Waves Ship Positions

Helgafell

Last reported at 2018-Jun-20 19:00 UTC. Time now 2018-Jun-20 19:10 UTC.
Position N 53°59' E 008°20'.

Type: Cargo ship. MMSI: 231355978.

Date/timePositionNaut miles runAvg speedWind from/ knotsBaromVisibWave heightAir tempDewpointWater temp
2018-Jun-20 19:00N 53°59' E 008°20'714.5
2018-Jun-20 18:30N 53°59' E 008°08'815.7
2018-Jun-20 18:00N 53°57' E 007°55'916.2
2018-Jun-20 17:29N 53°56' E 007°41'816.4
2018-Jun-20 17:00N 53°54' E 007°28'2116.8
2018-Jun-20 15:44N 53°49' E 006°53'416.8
2018-Jun-20 15:30N 53°48' E 006°46'816.9
2018-Jun-20 15:00N 53°46' E 006°32'917.0
2018-Jun-20 14:27N 53°44' E 006°17'817.3
2018-Jun-20 14:00N 53°41' E 006°05'917.4
2018-Jun-20 13:30N 53°38' E 005°51'917.6
2018-Jun-20 13:00N 53°35' E 005°37'917.5
2018-Jun-20 12:30N 53°33' E 005°23'917.5
2018-Jun-20 12:00N 53°30' E 005°09'917.6
2018-Jun-20 11:31N 53°27' E 004°55'917.3
2018-Jun-20 11:01N 53°22' E 004°43'1017.8
2018-Jun-20 10:27N 53°14' E 004°34'817.8
2018-Jun-20 10:00N 53°07' E 004°28'917.5
2018-Jun-20 09:30N 52°59' E 004°20'917.6
2018-Jun-20 09:00N 52°52' E 004°14'917.7
2018-Jun-20 08:30N 52°44' E 004°06'917.8
2018-Jun-20 08:00N 52°36' E 003°59'816.9
2018-Jun-20 07:30N 52°28' E 003°55'917.3
2018-Jun-20 07:01N 52°20' E 003°52'917.3
2018-Jun-20 06:31N 52°11' E 003°54'816.9
2018-Jun-20 06:00N 52°03' E 003°56'612.1
2018-Jun-20 05:30N 51°59' E 004°04'714.4
2018-Jun-20 05:00N 51°56' E 004°14'5 9.7
2018-Jun-20 04:30N 51°54' E 004°21'3 5.9
2018-Jun-20 04:00N 51°53' E 004°25'0 0.0
2018-Jun-20 03:28N 51°53' E 004°25'0 0.0
2018-Jun-20 02:58N 51°53' E 004°25'0 0.0
2018-Jun-20 02:28N 51°53' E 004°25'0 0.0
2018-Jun-20 01:58N 51°53' E 004°25'0 0.0
2018-Jun-20 01:28N 51°53' E 004°25'0 0.0
2018-Jun-20 00:55N 51°53' E 004°25'0 0.0
2018-Jun-20 00:28N 51°53' E 004°25'0 0.0
2018-Jun-19 23:58N 51°53' E 004°25'0 0.0
2018-Jun-19 23:28N 51°53' E 004°25'0 0.0
2018-Jun-19 22:58N 51°53' E 004°25'0 0.0
2018-Jun-19 22:28N 51°53' E 004°25'0 0.0
2018-Jun-19 21:58N 51°53' E 004°25'0 0.0
2018-Jun-19 21:28N 51°53' E 004°25'0 0.0
2018-Jun-19 20:58N 51°53' E 004°25'0 0.0
2018-Jun-19 20:28N 51°53' E 004°25'0 0.0
2018-Jun-19 19:58N 51°53' E 004°25'0 0.0
2018-Jun-19 19:28N 51°53' E 004°25'0 0.0
2018-Jun-19 18:58N 51°53' E 004°25'0 0.0
2018-Jun-19 18:28N 51°53' E 004°25'0 0.0
2018-Jun-19 17:58N 51°53' E 004°25'0 0.0
2018-Jun-19 17:28N 51°53' E 004°25'0 0.0
2018-Jun-19 16:58N 51°53' E 004°25'0 0.0
2018-Jun-19 16:28N 51°53' E 004°25'0 0.0
2018-Jun-19 15:58N 51°53' E 004°25'0 0.0
2018-Jun-19 15:28N 51°53' E 004°25'0 0.0
2018-Jun-19 14:58N 51°53' E 004°25'0 0.0
2018-Jun-19 14:28N 51°53' E 004°25'0 0.0
2018-Jun-19 13:58N 51°53' E 004°25'0 0.0
2018-Jun-19 13:28N 51°53' E 004°25'0 0.0
2018-Jun-19 12:58N 51°53' E 004°25'0 0.0
2018-Jun-19 12:28N 51°53' E 004°25'0 0.0
2018-Jun-19 11:58N 51°53' E 004°25'1 1.7
2018-Jun-19 11:30N 51°53' E 004°24'4 7.3
2018-Jun-19 11:00N 51°54' E 004°18'510.0
2018-Jun-19 10:30N 51°56' E 004°12'713.5
2018-Jun-19 10:00N 51°59' E 004°02'815.4
2018-Jun-19 09:30N 52°01' E 003°50'714.4
2018-Jun-19 09:00N 52°04' E 003°39'815.4
2018-Jun-19 08:30N 52°08' E 003°28'815.5
2018-Jun-19 08:00N 52°12' E 003°17'3915.2
2018-Jun-19 05:25N 52°35' E 002°25'615.1
2018-Jun-19 05:00N 52°39' E 002°17'714.8
2018-Jun-19 04:31N 52°43' E 002°07'714.9
2018-Jun-19 04:00N 52°47' E 001°56'815.3
2018-Jun-19 03:30N 52°50' E 001°45'815.5
2018-Jun-19 03:00N 52°56' E 001°36'815.6
2018-Jun-19 02:30N 53°02' E 001°28'815.9
2018-Jun-19 02:00N 53°09' E 001°22'815.8
2018-Jun-19 01:30N 53°16' E 001°15'3915.2
2018-Jun-18 22:54N 53°33' E 000°15'615.0
2018-Jun-18 22:30N 53°34' E 000°05'815.6
2018-Jun-18 22:00N 53°37' W 000°07'3 5.3
2018-Jun-18 21:30N 53°38' W 000°11'0 0.3
2018-Jun-18 21:00N 53°38' W 000°12'0 0.0
2018-Jun-18 20:23N 53°38' W 000°12'0 0.0
2018-Jun-18 19:59N 53°38' W 000°12'0 0.0
2018-Jun-18 19:29N 53°38' W 000°12'0 0.0
2018-Jun-18 18:56N 53°38' W 000°12'0 0.0
2018-Jun-18 17:41N 53°38' W 000°12'0 0.0
2018-Jun-18 17:29N 53°38' W 000°12'0 0.0
2018-Jun-18 16:59N 53°38' W 000°12'0 0.0
2018-Jun-18 16:29N 53°38' W 000°12'0 0.0
2018-Jun-18 15:56N 53°38' W 000°12'0 0.0
2018-Jun-18 15:29N 53°38' W 000°12'0 0.0
2018-Jun-18 14:56N 53°38' W 000°12'0 0.0
2018-Jun-18 14:26N 53°38' W 000°12'0 0.0
2018-Jun-18 13:59N 53°38' W 000°12'0 0.0
2018-Jun-18 13:29N 53°38' W 000°12'0 0.0
2018-Jun-18 12:59N 53°38' W 000°12'0 0.0
2018-Jun-18 12:29N 53°38' W 000°12'0 0.0
2018-Jun-18 11:47N 53°38' W 000°12'0 0.0
2018-Jun-18 11:23N 53°38' W 000°12'0 0.4
2018-Jun-18 11:00N 53°38' W 000°11'0 0.2
2018-Jun-18 10:30N 53°38' W 000°11'1 1.8
2018-Jun-18 10:00N 53°38' W 000°10'4 7.2
2018-Jun-18 09:30N 53°37' W 000°04'511.0
2018-Jun-18 09:00N 53°35' E 000°04'712.3
2018-Jun-18 08:28N 53°34' E 000°15'4 8.4
2018-Jun-18 08:00N 53°37' E 000°20'4 7.7
2018-Jun-18 07:30N 53°40' E 000°20'4 7.9
2018-Jun-18 06:59N 53°44' E 000°19'7 9.6
2018-Jun-18 06:19N 53°51' E 000°16'3 9.9
2018-Jun-18 05:59N 53°54' E 000°14'5 9.6
2018-Jun-18 05:31N 53°58' E 000°12'5 9.7
2018-Jun-18 05:00N 54°03' E 000°10'5 9.9
2018-Jun-18 04:30N 54°08' E 000°08'510.2
2018-Jun-18 04:00N 54°12' E 000°05'510.0
2018-Jun-18 03:30N 54°17' E 000°02'611.2
2018-Jun-18 03:00N 54°23' W 000°00'188.1
2018-Jun-18 03:00N 54°24' E 000°00'612.4 180 / 81006.210.8 13.6
2018-Jun-18 02:30N 54°30' W 000°04'714.9
2018-Jun-18 02:00N 54°37' W 000°08'714.9
2018-Jun-18 01:30N 54°44' W 000°11'11715.6
2018-Jun-17 18:00N 56°36' W 001°12'4414.7 190 / 81002.210.8 13.8
2018-Jun-17 15:00N 57°18' W 001°36'536.6 160 / 81002.010.8 12.8
2018-Jun-17 14:51N 57°23' W 001°34'617.5
2018-Jun-17 14:30N 57°29' W 001°37'3614.4
2018-Jun-17 12:00N 58°00' W 002°12'3120.8 220 / 41001.910.8 12.9
2018-Jun-17 10:30N 58°26' W 002°42'816.3
2018-Jun-17 10:00N 58°33' W 002°51'1019.3
2018-Jun-17 09:30N 58°41' W 003°01'1019.8
2018-Jun-17 08:59N 58°45' W 003°20'9415.7
2018-Jun-17 03:00N 59°30' W 006°00'8413.9 1000.010.8 11.8
2018-Jun-16 21:00N 60°12' W 008°24'5116.8 100 / 8999.810.8 10.9
2018-Jun-16 18:00N 60°36' W 009°54'4515.0 120 / 61000.410.8 11.2
2018-Jun-16 15:00N 61°00' W 011°12'13515.0 120 / 81001.610.8 11.4
2018-Jun-16 06:00N 62°12' W 015°12'4013.5 210 / 12997.010.8 9.6
2018-Jun-16 03:00N 62°30' W 016°30'4314.2 200 / 12995.010.8 9.6
2018-Jun-16 00:00N 62°48' W 017°54'3712.5 090 / 21994.710.8 8.1
2018-Jun-15 21:00N 63°06' W 019°06'   090 / 19993.910.8 8.1
2018-Jun-11 12:00N 62°06' W 008°12'   260 / 121011.910.8 10.0
Track history (hours):
 
Tides and Currents Weather Stations Pressure Air Temp Water Temp Dewpoint Dewpoint Depression Visibility Wind Speed Wind Dir Waves Ship Positions

Helgafell

Last reported at 2018-Jun-20 19:00 UTC. Time now 2018-Jun-20 19:10 UTC.
Position N 53°59' E 008°20'.

Type: Cargo ship. MMSI: 231355978.

Date/timePositionNaut miles runAvg speedWind from/ knotsBaromVisibWave heightAir tempDewpointWater temp
2018-Jun-20 19:00N 53°59' E 008°20'714.5
2018-Jun-20 18:30N 53°59' E 008°08'815.7
2018-Jun-20 18:00N 53°57' E 007°55'916.2
2018-Jun-20 17:29N 53°56' E 007°41'816.4
2018-Jun-20 17:00N 53°54' E 007°28'2116.8
2018-Jun-20 15:44N 53°49' E 006°53'416.8
2018-Jun-20 15:30N 53°48' E 006°46'816.9
2018-Jun-20 15:00N 53°46' E 006°32'917.0
2018-Jun-20 14:27N 53°44' E 006°17'817.3
2018-Jun-20 14:00N 53°41' E 006°05'917.4
2018-Jun-20 13:30N 53°38' E 005°51'917.6
2018-Jun-20 13:00N 53°35' E 005°37'917.5
2018-Jun-20 12:30N 53°33' E 005°23'917.5
2018-Jun-20 12:00N 53°30' E 005°09'917.6
2018-Jun-20 11:31N 53°27' E 004°55'917.3
2018-Jun-20 11:01N 53°22' E 004°43'1017.8
2018-Jun-20 10:27N 53°14' E 004°34'817.8
2018-Jun-20 10:00N 53°07' E 004°28'917.5
2018-Jun-20 09:30N 52°59' E 004°20'917.6
2018-Jun-20 09:00N 52°52' E 004°14'917.7
2018-Jun-20 08:30N 52°44' E 004°06'917.8
2018-Jun-20 08:00N 52°36' E 003°59'816.9
2018-Jun-20 07:30N 52°28' E 003°55'917.3
2018-Jun-20 07:01N 52°20' E 003°52'917.3
2018-Jun-20 06:31N 52°11' E 003°54'816.9
2018-Jun-20 06:00N 52°03' E 003°56'612.1
2018-Jun-20 05:30N 51°59' E 004°04'714.4
2018-Jun-20 05:00N 51°56' E 004°14'5 9.7
2018-Jun-20 04:30N 51°54' E 004°21'3 5.9
2018-Jun-20 04:00N 51°53' E 004°25'0 0.0
2018-Jun-20 03:28N 51°53' E 004°25'0 0.0
2018-Jun-20 02:58N 51°53' E 004°25'0 0.0
2018-Jun-20 02:28N 51°53' E 004°25'0 0.0
2018-Jun-20 01:58N 51°53' E 004°25'0 0.0
2018-Jun-20 01:28N 51°53' E 004°25'0 0.0
2018-Jun-20 00:55N 51°53' E 004°25'0 0.0
2018-Jun-20 00:28N 51°53' E 004°25'0 0.0
2018-Jun-19 23:58N 51°53' E 004°25'0 0.0
2018-Jun-19 23:28N 51°53' E 004°25'0 0.0
2018-Jun-19 22:58N 51°53' E 004°25'0 0.0
2018-Jun-19 22:28N 51°53' E 004°25'0 0.0
2018-Jun-19 21:58N 51°53' E 004°25'0 0.0
2018-Jun-19 21:28N 51°53' E 004°25'0 0.0
2018-Jun-19 20:58N 51°53' E 004°25'0 0.0
2018-Jun-19 20:28N 51°53' E 004°25'0 0.0
2018-Jun-19 19:58N 51°53' E 004°25'0 0.0
2018-Jun-19 19:28N 51°53' E 004°25'0 0.0
2018-Jun-19 18:58N 51°53' E 004°25'0 0.0
2018-Jun-19 18:28N 51°53' E 004°25'0 0.0
2018-Jun-19 17:58N 51°53' E 004°25'0 0.0
2018-Jun-19 17:28N 51°53' E 004°25'0 0.0
2018-Jun-19 16:58N 51°53' E 004°25'0 0.0
2018-Jun-19 16:28N 51°53' E 004°25'0 0.0
2018-Jun-19 15:58N 51°53' E 004°25'0 0.0
2018-Jun-19 15:28N 51°53' E 004°25'0 0.0
2018-Jun-19 14:58N 51°53' E 004°25'0 0.0
2018-Jun-19 14:28N 51°53' E 004°25'0 0.0
2018-Jun-19 13:58N 51°53' E 004°25'0 0.0
2018-Jun-19 13:28N 51°53' E 004°25'0 0.0
2018-Jun-19 12:58N 51°53' E 004°25'0 0.0
2018-Jun-19 12:28N 51°53' E 004°25'0 0.0
2018-Jun-19 11:58N 51°53' E 004°25'1 1.7
2018-Jun-19 11:30N 51°53' E 004°24'4 7.3
2018-Jun-19 11:00N 51°54' E 004°18'510.0
2018-Jun-19 10:30N 51°56' E 004°12'713.5
2018-Jun-19 10:00N 51°59' E 004°02'815.4
2018-Jun-19 09:30N 52°01' E 003°50'714.4
2018-Jun-19 09:00N 52°04' E 003°39'815.4
2018-Jun-19 08:30N 52°08' E 003°28'815.5
2018-Jun-19 08:00N 52°12' E 003°17'3915.2
2018-Jun-19 05:25N 52°35' E 002°25'615.1
2018-Jun-19 05:00N 52°39' E 002°17'714.8
2018-Jun-19 04:31N 52°43' E 002°07'714.9
2018-Jun-19 04:00N 52°47' E 001°56'815.3
2018-Jun-19 03:30N 52°50' E 001°45'815.5
2018-Jun-19 03:00N 52°56' E 001°36'815.6
2018-Jun-19 02:30N 53°02' E 001°28'815.9
2018-Jun-19 02:00N 53°09' E 001°22'815.8
2018-Jun-19 01:30N 53°16' E 001°15'3915.2
2018-Jun-18 22:54N 53°33' E 000°15'615.0
2018-Jun-18 22:30N 53°34' E 000°05'815.6
2018-Jun-18 22:00N 53°37' W 000°07'3 5.3
2018-Jun-18 21:30N 53°38' W 000°11'0 0.3
2018-Jun-18 21:00N 53°38' W 000°12'0 0.0
2018-Jun-18 20:23N 53°38' W 000°12'0 0.0
2018-Jun-18 19:59N 53°38' W 000°12'0 0.0
2018-Jun-18 19:29N 53°38' W 000°12'0 0.0
2018-Jun-18 18:56N 53°38' W 000°12'0 0.0
2018-Jun-18 17:41N 53°38' W 000°12'0 0.0
2018-Jun-18 17:29N 53°38' W 000°12'0 0.0
2018-Jun-18 16:59N 53°38' W 000°12'0 0.0
2018-Jun-18 16:29N 53°38' W 000°12'0 0.0
2018-Jun-18 15:56N 53°38' W 000°12'0 0.0
2018-Jun-18 15:29N 53°38' W 000°12'0 0.0
2018-Jun-18 14:56N 53°38' W 000°12'0 0.0
2018-Jun-18 14:26N 53°38' W 000°12'0 0.0
2018-Jun-18 13:59N 53°38' W 000°12'0 0.0
2018-Jun-18 13:29N 53°38' W 000°12'0 0.0
2018-Jun-18 12:59N 53°38' W 000°12'0 0.0
2018-Jun-18 12:29N 53°38' W 000°12'0 0.0
2018-Jun-18 11:47N 53°38' W 000°12'0 0.0
2018-Jun-18 11:23N 53°38' W 000°12'0 0.4
2018-Jun-18 11:00N 53°38' W 000°11'0 0.2
2018-Jun-18 10:30N 53°38' W 000°11'1 1.8
2018-Jun-18 10:00N 53°38' W 000°10'4 7.2
2018-Jun-18 09:30N 53°37' W 000°04'511.0
2018-Jun-18 09:00N 53°35' E 000°04'712.3
2018-Jun-18 08:28N 53°34' E 000°15'4 8.4
2018-Jun-18 08:00N 53°37' E 000°20'4 7.7
2018-Jun-18 07:30N 53°40' E 000°20'4 7.9
2018-Jun-18 06:59N 53°44' E 000°19'7 9.6
2018-Jun-18 06:19N 53°51' E 000°16'3 9.9
2018-Jun-18 05:59N 53°54' E 000°14'5 9.6
2018-Jun-18 05:31N 53°58' E 000°12'5 9.7
2018-Jun-18 05:00N 54°03' E 000°10'5 9.9
2018-Jun-18 04:30N 54°08' E 000°08'510.2
2018-Jun-18 04:00N 54°12' E 000°05'510.0
2018-Jun-18 03:30N 54°17' E 000°02'611.2
2018-Jun-18 03:00N 54°23' W 000°00'188.1
2018-Jun-18 03:00N 54°24' E 000°00'612.4 180 / 81006.210.8 13.6
2018-Jun-18 02:30N 54°30' W 000°04'714.9
2018-Jun-18 02:00N 54°37' W 000°08'714.9
2018-Jun-18 01:30N 54°44' W 000°11'11715.6
2018-Jun-17 18:00N 56°36' W 001°12'4414.7 190 / 81002.210.8 13.8
2018-Jun-17 15:00N 57°18' W 001°36'536.6 160 / 81002.010.8 12.8
2018-Jun-17 14:51N 57°23' W 001°34'617.5
2018-Jun-17 14:30N 57°29' W 001°37'3614.4
2018-Jun-17 12:00N 58°00' W 002°12'3120.8 220 / 41001.910.8 12.9
2018-Jun-17 10:30N 58°26' W 002°42'816.3
2018-Jun-17 10:00N 58°33' W 002°51'1019.3
2018-Jun-17 09:30N 58°41' W 003°01'1019.8
2018-Jun-17 08:59N 58°45' W 003°20'9415.7
2018-Jun-17 03:00N 59°30' W 006°00'8413.9 1000.010.8 11.8
2018-Jun-16 21:00N 60°12' W 008°24'5116.8 100 / 8999.810.8 10.9
2018-Jun-16 18:00N 60°36' W 009°54'4515.0 120 / 61000.410.8 11.2
2018-Jun-16 15:00N 61°00' W 011°12'13515.0 120 / 81001.610.8 11.4
2018-Jun-16 06:00N 62°12' W 015°12'4013.5 210 / 12997.010.8 9.6
2018-Jun-16 03:00N 62°30' W 016°30'4314.2 200 / 12995.010.8 9.6
2018-Jun-16 00:00N 62°48' W 017°54'3712.5 090 / 21994.710.8 8.1
2018-Jun-15 21:00N 63°06' W 019°06'   090 / 19993.910.8 8.1
2018-Jun-11 12:00N 62°06' W 008°12'   260 / 121011.910.8 10.0

Dump ship's entire track history